Time;durP1;ratioP1;P1;durP2;ratioP2;P2;SDS_P1;SDS_P2;PMS_P1;PMS_P2;Temp;Humidity;BMP_temperature;BMP_pressure;BME280_temperature;BME280_humidity;BME280_pressure;Samples;Min_cycle;Max_cycle;Signal;HPM_P1;HPM_P2
2021/12/15 00:14:44;;;;;;;71.60;23.33;;;;;;;5.04;100.00;101364.52;714232;1202;113966;-71
2021/12/15 00:29:48;;;;;;;49.50;19.75;;;;;;;5.06;100.00;101386.11;713785;1178;114267;-71
2021/12/15 00:44:51;;;;;;;53.43;19.87;;;;;;;5.17;100.00;101391.63;714007;1204;114128;-71
2021/12/15 00:59:53;;;;;;;52.23;21.53;;;;;;;5.19;100.00;101387.20;713827;1197;114297;-70
2021/12/15 01:30:15;;;;;;;51.28;19.23;;;;;;;5.13;100.00;101429.98;713836;1200;114175;-70
2021/12/15 02:00:48;;;;;;;107.35;50.15;;;;;;;4.99;100.00;101412.40;713791;1177;114134;-71
2021/12/15 02:15:57;;;;;;;193.83;93.63;;;;;;;4.98;100.00;101413.30;713990;1200;114432;-71
2021/12/15 02:31:13;;;;;;;38.70;19.63;;;;;;;4.93;100.00;101427.45;714040;1177;114267;-70
2021/12/15 02:46:16;;;;;;;52.50;25.65;;;;;;;4.93;100.00;101423.08;713968;1188;114136;-70
2021/12/15 03:01:32;;;;;;;28.15;13.23;;;;;;;4.85;100.00;101435.59;713791;1179;113982;-70
2021/12/15 03:16:35;;;;;;;34.03;14.97;;;;;;;4.80;100.00;101455.76;713908;1200;114330;-70
2021/12/15 03:47:00;;;;;;;234.25;83.35;;;;;;;4.69;100.00;101440.65;713808;1203;114262;-71
2021/12/15 04:02:02;;;;;;;48.23;20.27;;;;;;;4.62;100.00;101432.28;713755;1177;115844;-71
2021/12/15 04:17:07;;;;;;;37.45;15.55;;;;;;;4.69;100.00;101439.81;713921;1203;115903;-71
2021/12/15 04:32:33;;;;;;;42.35;20.40;;;;;;;4.71;100.00;101428.44;713707;1200;114606;-72
2021/12/15 04:47:35;;;;;;;30.50;13.73;;;;;;;4.79;100.00;101417.66;713854;1200;115113;-72
2021/12/15 05:02:38;;;;;;;34.40;16.40;;;;;;;4.74;100.00;101430.03;713985;1200;114541;-72
2021/12/15 05:17:41;;;;;;;82.85;35.68;;;;;;;4.77;100.00;101442.91;715228;1186;115024;-72
2021/12/15 05:32:43;;;;;;;29.97;13.93;;;;;;;4.70;100.00;101475.27;715471;1175;114213;-72
2021/12/15 05:47:46;;;;;;;35.97;17.40;;;;;;;4.70;100.00;101483.94;715190;1176;114644;-72
2021/12/15 06:02:48;;;;;;;43.48;19.35;;;;;;;4.71;100.00;101490.83;714930;1200;115485;-72
2021/12/15 06:17:57;;;;;;;55.60;22.53;;;;;;;4.72;100.00;101499.46;716433;1176;114112;-72
2021/12/15 06:33:00;;;;;;;33.70;17.55;;;;;;;4.66;100.00;101505.78;713963;1203;114659;-72
2021/12/15 07:03:25;;;;;;;29.33;13.15;;;;;;;4.74;100.00;101516.68;714158;1200;113884;-72
2021/12/15 07:18:41;;;;;;;36.63;15.38;;;;;;;4.76;100.00;101503.61;714192;1200;114251;-72
2021/12/15 07:33:44;;;;;;;65.35;38.35;;;;;;;4.86;100.00;101504.89;714068;1202;115289;-72
2021/12/15 07:48:47;;;;;;;68.93;32.58;;;;;;;5.00;100.00;101512.06;714597;1200;114699;-76
2021/12/15 08:03:54;;;;;;;51.67;22.57;;;;;;;4.83;100.00;101487.67;714210;1205;114623;-76
2021/12/15 08:18:57;;;;;;;54.35;21.55;;;;;;;4.73;100.00;101508.95;714213;1199;114596;-75
2021/12/15 08:34:03;;;;;;;55.98;21.08;;;;;;;4.80;100.00;101520.76;714301;1178;114470;-75
2021/12/15 08:49:09;;;;;;;50.83;22.37;;;;;;;4.65;100.00;101507.52;714381;1200;114496;-74
2021/12/15 09:04:13;;;;;;;48.60;19.40;;;;;;;4.75;100.00;101507.11;714369;1200;115919;-75
2021/12/15 09:19:16;;;;;;;37.13;19.00;;;;;;;4.75;100.00;101522.71;714647;1177;114130;-75
2021/12/15 09:34:19;;;;;;;44.33;22.03;;;;;;;4.80;100.00;101520.76;714701;1202;115326;-76
2021/12/15 10:04:58;;;;;;;41.07;20.03;;;;;;;5.00;100.00;101473.91;714615;1200;114139;-76
2021/12/15 10:20:02;;;;;;;57.07;23.73;;;;;;;5.35;100.00;101465.38;714503;1193;114059;-75
2021/12/15 10:35:10;;;;;;;47.23;22.18;;;;;;;5.32;100.00;101455.13;714549;1200;115018;-75
2021/12/15 10:50:15;;;;;;;;;;;;;;;5.46;100.00;101460.52;714810;1202;115614;-75
2021/12/15 11:05:22;;;;;;;65.20;26.98;;;;;;;5.63;100.00;101453.64;714417;1202;101192;-75
2021/12/15 11:20:32;;;;;;;76.03;30.55;;;;;;;5.74;100.00;101469.59;714581;1178;114267;-76
2021/12/15 11:35:40;;;;;;;60.15;24.60;;;;;;;5.79;100.00;101454.59;714320;1205;114110;-75
2021/12/15 11:50:44;;;;;;;64.43;27.97;;;;;;;5.90;100.00;101472.28;714426;1186;114653;-75
2021/12/15 12:05:48;;;;;;;96.05;38.95;;;;;;;5.98;100.00;101474.55;714763;1200;114170;-75
2021/12/15 12:20:53;;;;;;;79.15;33.35;;;;;;;6.13;100.00;101468.54;715139;1199;114224;-75
2021/12/15 12:36:03;;;;;;;81.58;31.25;;;;;;;6.37;100.00;101465.61;715717;1200;114130;-76
2021/12/15 13:06:41;;;;;;;73.43;30.30;;;;;;;6.47;100.00;101440.75;717799;1200;115152;-75
2021/12/15 13:22:18;;;;;;;87.88;34.28;;;;;;;6.56;100.00;101405.54;715515;1200;115545;-75
2021/12/15 13:37:51;;;;;;;100.03;37.30;;;;;;;6.72;100.00;101441.20;715182;1203;114131;-71
2021/12/15 13:52:58;;;;;;;87.13;39.40;;;;;;;6.73;100.00;101417.68;715455;1204;115919;-71
2021/12/15 14:08:08;;;;;;;71.40;28.20;;;;;;;6.80;100.00;101426.02;716085;1179;114156;-70
2021/12/15 14:23:15;;;;;;;72.53;26.83;;;;;;;6.89;100.00;101411.61;715829;1203;115800;-70
2021/12/15 14:38:19;;;;;;;73.57;26.03;;;;;;;6.99;100.00;101413.66;714940;1201;115003;-72
2021/12/15 14:53:23;;;;;;;137.63;47.63;;;;;;;7.08;100.00;101421.89;714804;1200;115025;-73
2021/12/15 15:08:32;;;;;;;122.15;48.75;;;;;;;7.17;100.00;101426.60;715034;1188;114910;-72
2021/12/15 15:23:39;;;;;;;88.27;33.53;;;;;;;7.25;100.00;101427.01;716373;1183;114443;-73
2021/12/15 15:38:51;;;;;;;100.55;32.70;;;;;;;7.33;100.00;101437.03;715258;1199;114202;-72
2021/12/15 15:53:57;;;;;;;111.43;34.03;;;;;;;7.35;100.00;101436.94;715261;1200;114431;-72
2021/12/15 16:09:05;;;;;;;110.53;36.60;;;;;;;7.40;100.00;101445.35;715319;1203;116151;-73
2021/12/15 16:24:14;;;;;;;99.35;33.20;;;;;;;7.54;100.00;101461.08;714883;1200;115780;-72
2021/12/15 16:39:16;;;;;;;103.80;34.48;;;;;;;7.62;100.00;101458.87;715090;1200;114234;-73
2021/12/15 16:54:20;;;;;;;94.53;33.15;;;;;;;7.68;100.00;101422.89;715636;1200;115404;-73
2021/12/15 17:09:32;;;;;;;98.70;32.18;;;;;;;7.77;100.00;101443.25;715402;1199;115340;-73
2021/12/15 17:24:40;;;;;;;95.50;32.33;;;;;;;7.81;100.00;101452.59;714857;1174;114226;-73
2021/12/15 17:40:01;;;;;;;100.15;33.90;;;;;;;7.81;100.00;101435.16;714879;1176;114498;-73
2021/12/15 17:55:16;;;;;;;87.60;28.43;;;;;;;7.77;100.00;101431.05;715011;1199;115701;-71
2021/12/15 18:10:35;;;;;;;125.80;37.60;;;;;;;7.78;100.00;101429.27;715047;1174;114937;-74
2021/12/15 18:25:42;;;;;;;108.07;35.80;;;;;;;7.77;100.00;101409.29;715003;1202;115053;-74
2021/12/15 18:40:48;;;;;;;87.17;28.90;;;;;;;7.80;100.00;101402.13;715410;1187;115225;-73
2021/12/15 18:55:52;;;;;;;89.15;30.08;;;;;;;7.78;100.00;101419.64;715065;1200;114426;-74
2021/12/15 19:10:56;;;;;;;89.38;28.68;;;;;;;7.79;100.00;101426.56;715184;1200;114465;-73
2021/12/15 19:26:00;;;;;;;128.20;37.45;;;;;;;7.79;100.00;101418.72;715330;1200;115030;-72
2021/12/15 19:41:06;;;;;;;134.25;47.85;;;;;;;7.86;100.00;101436.66;714786;1200;114706;-73
2021/12/15 19:56:11;;;;;;;95.88;30.53;;;;;;;7.88;100.00;101425.19;714809;1177;114298;-70
2021/12/15 20:11:19;;;;;;;115.17;34.53;;;;;;;7.98;100.00;101435.93;715131;1193;114064;-71
2021/12/15 20:26:25;;;;;;;177.43;54.63;;;;;;;8.02;100.00;101439.22;715314;1176;114204;-71
2021/12/15 20:41:29;;;;;;;93.73;31.58;;;;;;;8.10;100.00;101436.98;724291;1177;114392;-73
2021/12/15 20:56:32;;;;;;;86.33;29.00;;;;;;;8.22;100.00;101422.34;714045;1203;116874;-72
2021/12/15 21:11:36;;;;;;;96.43;31.43;;;;;;;8.23;100.00;101419.63;713975;1200;114209;-72
2021/12/15 21:26:40;;;;;;;102.55;34.58;;;;;;;8.27;100.00;101410.66;713953;1179;113989;-73
2021/12/15 21:41:43;;;;;;;87.85;31.28;;;;;;;8.24;100.00;101402.19;714116;1200;114932;-72
2021/12/15 21:56:47;;;;;;;84.75;33.63;;;;;;;8.33;100.00;101367.64;714121;1176;114162;-72
2021/12/15 22:11:53;;;;;;;88.13;36.23;;;;;;;8.39;100.00;101369.03;714048;1181;114178;-73
2021/12/15 22:26:58;;;;;;;67.95;28.28;;;;;;;8.39;100.00;101355.95;714314;1200;115319;-72
2021/12/15 22:42:03;;;;;;;69.70;26.03;;;;;;;8.38;100.00;101349.90;714248;1200;114233;-74
2021/12/15 22:57:09;;;;;;;67.30;26.15;;;;;;;8.43;100.00;101336.52;714037;1202;115564;-74
2021/12/15 23:12:13;;;;;;;60.73;25.25;;;;;;;8.48;100.00;101322.25;714124;1179;114263;-74
2021/12/15 23:27:16;;;;;;;71.23;29.70;;;;;;;8.52;100.00;101320.28;713894;1200;114240;-74
2021/12/15 23:43:36;;;;;;;64.05;26.98;;;;;;;8.50;100.00;101335.25;713960;1203;114307;-73
